createdAt,value
2018-03-03T00:00:40.928Z,134.98
2018-03-03T00:03:08.629Z,143.60
2018-03-03T00:05:36.450Z,149.17
2018-03-03T00:08:05.470Z,160.23
2018-03-03T00:10:33.050Z,226.30
2018-03-03T00:13:00.808Z,180.02
2018-03-03T00:15:28.434Z,139.23
2018-03-03T00:17:56.002Z,136.80
2018-03-03T00:20:23.577Z,139.57
2018-03-03T00:22:51.164Z,148.85
2018-03-03T00:25:18.716Z,139.60
2018-03-03T00:27:46.518Z,142.55
2018-03-03T00:30:14.331Z,153.47
2018-03-03T00:32:41.909Z,185.77
2018-03-03T00:35:09.502Z,191.70
2018-03-03T00:37:37.089Z,175.02
2018-03-03T00:40:04.701Z,187.53
2018-03-03T00:42:32.280Z,817.63
2018-03-03T00:45:00.006Z,295.02
2018-03-03T00:47:27.757Z,202.75
2018-03-03T00:49:55.489Z,158.77
2018-03-03T00:52:23.074Z,151.57
2018-03-03T00:54:50.700Z,113.23
2018-03-03T00:57:18.282Z,121.43
2018-03-03T00:59:45.862Z,115.18
2018-03-03T01:02:13.441Z,131.00
2018-03-03T01:04:41.017Z,128.07
2018-03-03T01:07:08.590Z,142.90
2018-03-03T01:09:36.317Z,160.77
2018-03-03T01:12:03.954Z,152.93
2018-03-03T01:14:31.754Z,143.67
2018-03-03T01:16:59.571Z,140.93
2018-03-03T01:19:27.134Z,151.70
2018-03-03T01:21:54.704Z,176.93
2018-03-03T01:24:22.529Z,165.20
2018-03-03T01:26:50.344Z,172.93
2018-03-03T01:29:17.958Z,173.23
2018-03-03T01:31:45.680Z,172.73
2018-03-03T01:34:13.257Z,220.93
2018-03-03T01:36:41.018Z,160.80
2018-03-03T01:39:08.590Z,164.07
2018-03-03T01:41:36.325Z,157.77
2018-03-03T01:44:04.083Z,163.77
2018-03-03T01:46:31.687Z,274.57
2018-03-03T01:48:59.260Z,157.73
2018-03-03T01:51:49.525Z,137.17
2018-03-03T01:54:17.089Z,144.13
2018-03-03T01:56:44.707Z,145.07
2018-03-03T01:59:12.270Z,175.20
2018-03-03T02:01:39.847Z,186.23
2018-03-03T02:04:07.440Z,198.67
2018-03-03T02:06:35.009Z,218.50
2018-03-03T02:09:02.713Z,221.60
2018-03-03T02:11:30.546Z,240.87
2018-03-03T02:13:58.367Z,250.82
2018-03-03T02:16:25.956Z,270.60
2018-03-03T02:18:53.700Z,227.07
2018-03-03T02:21:21.519Z,190.48
2018-03-03T02:23:49.088Z,191.03
2018-03-03T02:26:16.737Z,204.77
2018-03-03T02:28:44.324Z,201.60
2018-03-03T02:31:11.963Z,167.60
2018-03-03T02:33:39.544Z,153.80
2018-03-03T02:36:07.123Z,178.60
2018-03-03T02:38:34.711Z,179.40
2018-03-03T02:41:02.436Z,167.23
2018-03-03T02:43:30.025Z,146.93
2018-03-03T02:45:57.581Z,141.55
2018-03-03T02:48:25.204Z,141.20
2018-03-03T02:50:53.034Z,154.12
2018-03-03T02:53:20.598Z,162.73
2018-03-03T02:55:48.249Z,135.12
2018-03-03T02:58:15.955Z,119.00
2018-03-03T03:00:43.526Z,113.70
2018-03-03T03:03:11.803Z,116.80
2018-03-03T03:05:39.936Z,116.30
2018-03-03T03:08:07.561Z,116.50
2018-03-03T03:10:35.131Z,109.63
2018-03-03T03:13:02.814Z,107.95
2018-03-03T03:15:30.381Z,143.13
2018-03-03T03:17:58.135Z,108.73
2018-03-03T03:20:25.710Z,109.15
2018-03-03T03:22:53.370Z,112.68
2018-03-03T03:25:21.188Z,107.43
2018-03-03T03:27:48.906Z,117.03
2018-03-03T03:30:16.499Z,123.57
2018-03-03T03:32:44.223Z,130.20
2018-03-03T03:35:11.795Z,106.70
2018-03-03T03:37:39.354Z,97.67
2018-03-03T03:40:07.196Z,107.53
2018-03-03T03:42:34.763Z,102.00
2018-03-03T03:45:02.339Z,105.05
2018-03-03T03:47:29.939Z,110.12
2018-03-03T03:49:57.501Z,102.93
2018-03-03T03:52:25.178Z,113.53
2018-03-03T03:54:52.747Z,115.30
2018-03-03T03:57:20.376Z,110.47
2018-03-03T03:59:47.949Z,123.25
2018-03-03T04:02:15.757Z,101.53
2018-03-03T04:04:43.468Z,107.95
2018-03-03T04:07:11.084Z,114.72
2018-03-03T04:09:38.674Z,126.50
2018-03-03T04:12:06.405Z,138.25
2018-03-03T04:14:34.058Z,138.00
2018-03-03T04:17:01.638Z,144.60
2018-03-03T04:19:29.214Z,151.07
2018-03-03T04:21:56.816Z,151.60
2018-03-03T04:24:24.426Z,160.37
2018-03-03T04:26:52.058Z,158.15
2018-03-03T04:29:19.773Z,168.48
2018-03-03T04:31:47.442Z,166.95
2018-03-03T04:34:15.080Z,159.00
2018-03-03T04:36:42.659Z,146.00
2018-03-03T04:39:10.245Z,149.25
2018-03-03T04:41:37.817Z,159.70
2018-03-03T04:44:05.661Z,156.03
2018-03-03T04:46:33.262Z,141.57
2018-03-03T04:49:01.097Z,132.33
2018-03-03T04:51:28.698Z,129.87
2018-03-03T04:53:56.298Z,124.33
2018-03-03T04:56:23.918Z,119.57
2018-03-03T04:58:54.205Z,118.68
2018-03-03T05:01:21.894Z,135.23
2018-03-03T05:06:57.474Z,125.20
2018-03-03T05:09:25.294Z,122.97
2018-03-03T05:11:52.967Z,157.60
2018-03-03T05:14:25.997Z,142.40
2018-03-03T05:16:59.356Z,135.30
2018-03-03T05:19:32.477Z,137.40
2018-03-03T05:22:05.710Z,135.68
2018-03-03T05:24:38.920Z,132.60
2018-03-03T05:27:12.251Z,152.15
2018-03-03T05:29:45.572Z,146.25
2018-03-03T05:35:21.447Z,154.23
2018-03-03T05:37:54.498Z,144.00
2018-03-03T05:40:27.724Z,136.18
2018-03-03T05:43:02.009Z,151.57
2018-03-03T05:45:35.180Z,129.83
2018-03-03T05:51:20.715Z,121.17
2018-03-03T05:56:55.202Z,169.10
2018-03-03T05:59:28.282Z,135.77
2018-03-03T06:02:05.778Z,127.53
2018-03-03T06:04:48.229Z,131.80
2018-03-03T06:07:21.463Z,133.40
2018-03-03T06:09:59.788Z,141.60
2018-03-03T06:12:27.364Z,140.60
2018-03-03T06:14:55.014Z,154.80
2018-03-03T06:17:22.579Z,145.27
2018-03-03T06:19:50.139Z,146.87
2018-03-03T06:22:17.931Z,147.47
2018-03-03T06:24:45.489Z,182.00
2018-03-03T06:27:13.062Z,227.00
2018-03-03T06:29:40.758Z,193.93
2018-03-03T06:32:08.375Z,195.97
2018-03-03T06:34:35.951Z,175.03
2018-03-03T06:37:03.527Z,229.90
2018-03-03T06:39:31.224Z,182.23
2018-03-03T06:41:58.786Z,184.60
2018-03-03T06:44:26.385Z,142.10
2018-03-03T06:46:53.947Z,142.80
2018-03-03T06:49:21.726Z,307.63
2018-03-03T06:51:49.893Z,192.67
2018-03-03T06:54:17.450Z,146.07
2018-03-03T06:56:45.026Z,156.43
2018-03-03T06:59:12.874Z,175.07
2018-03-03T07:01:40.466Z,261.10
2018-03-03T07:04:08.235Z,179.80
2018-03-03T07:06:35.858Z,181.23
2018-03-03T07:09:03.473Z,200.17
2018-03-03T07:11:31.070Z,188.87
2018-03-03T07:13:58.692Z,163.13
2018-03-03T07:16:26.363Z,138.90
2018-03-03T07:18:53.996Z,143.17
2018-03-03T07:21:21.555Z,146.93
2018-03-03T07:23:49.376Z,142.70
2018-03-03T07:26:16.942Z,145.43
2018-03-03T07:28:44.729Z,141.07
2018-03-03T07:31:12.533Z,129.37
2018-03-03T07:33:40.352Z,62.33
2018-03-03T07:36:07.923Z,66.47
2018-03-03T07:38:36.110Z,63.23
2018-03-03T07:41:04.669Z,61.60
2018-03-03T07:43:32.233Z,53.57
2018-03-03T07:46:00.047Z,55.37
2018-03-03T07:48:27.691Z,61.43
2018-03-03T07:50:55.325Z,62.30
2018-03-03T07:53:22.894Z,55.80
2018-03-03T07:55:50.461Z,54.43
2018-03-03T07:58:29.898Z,58.63
2018-03-03T08:00:57.695Z,59.63
2018-03-03T08:03:25.515Z,67.97
2018-03-03T08:05:53.317Z,58.90
2018-03-03T08:08:21.051Z,65.87
2018-03-03T08:10:48.637Z,65.03
2018-03-03T08:13:16.387Z,106.60
2018-03-03T08:15:44.205Z,90.03
2018-03-03T08:18:11.778Z,71.53
2018-03-03T08:20:39.341Z,83.23
2018-03-03T08:23:06.910Z,70.67
2018-03-03T08:25:34.648Z,72.30
2018-03-03T08:28:02.496Z,66.87
2018-03-03T08:30:30.214Z,62.33
2018-03-03T08:32:57.842Z,89.30
2018-03-03T08:35:25.614Z,87.23
2018-03-03T08:37:53.210Z,58.67
2018-03-03T08:40:20.986Z,58.33
2018-03-03T08:42:48.535Z,58.97
2018-03-03T08:45:16.117Z,59.17
2018-03-03T08:47:43.690Z,61.13
2018-03-03T08:50:11.314Z,59.27
2018-03-03T08:52:38.921Z,66.50
2018-03-03T08:55:06.478Z,68.17
2018-03-03T08:57:34.200Z,68.07
2018-03-03T09:00:02.029Z,69.93
2018-03-03T09:02:29.610Z,64.63
2018-03-03T09:04:57.178Z,60.37
2018-03-03T09:07:24.791Z,60.80
2018-03-03T09:09:52.366Z,63.33
2018-03-03T09:12:19.990Z,62.70
2018-03-03T09:14:47.555Z,62.00
2018-03-03T09:17:15.354Z,66.53
2018-03-03T09:19:42.925Z,71.10
2018-03-03T09:22:10.651Z,71.33
2018-03-03T09:24:38.254Z,83.67
2018-03-03T09:27:05.828Z,68.00
2018-03-03T09:29:33.465Z,68.90
2018-03-03T09:32:01.030Z,65.27
2018-03-03T09:34:28.585Z,70.17
2018-03-03T09:36:56.149Z,76.50
2018-03-03T09:39:23.706Z,77.90
2018-03-03T09:41:51.328Z,77.33
2018-03-03T09:44:18.890Z,89.43
2018-03-03T09:46:46.502Z,82.30
2018-03-03T09:49:14.319Z,76.27
2018-03-03T09:51:42.183Z,65.67
2018-03-03T09:54:09.913Z,66.77
2018-03-03T09:56:37.474Z,73.50
2018-03-03T09:59:05.260Z,85.70
2018-03-03T10:01:33.157Z,92.30
2018-03-03T10:04:01.001Z,140.87
2018-03-03T10:06:28.596Z,97.37
2018-03-03T10:08:56.173Z,101.20
2018-03-03T10:11:23.950Z,84.37
2018-03-03T10:13:51.510Z,90.77
2018-03-03T10:16:19.299Z,93.13
2018-03-03T10:18:46.903Z,91.97
2018-03-03T10:21:14.557Z,98.90
2018-03-03T10:23:42.133Z,103.03
2018-03-03T10:26:09.858Z,139.57
2018-03-03T10:28:37.575Z,95.50
2018-03-03T10:31:05.142Z,111.73
2018-03-03T10:33:32.716Z,97.93
2018-03-03T10:36:00.531Z,94.17
2018-03-03T10:38:28.230Z,93.73
2018-03-03T10:40:55.792Z,95.90
2018-03-03T10:43:23.585Z,94.00
2018-03-03T10:45:51.315Z,92.07
2018-03-03T10:48:18.910Z,63.07
2018-03-03T10:50:46.803Z,47.23
2018-03-03T10:53:14.557Z,43.40
2018-03-03T10:55:42.809Z,39.77
2018-03-03T10:58:10.383Z,33.67
2018-03-03T11:00:37.990Z,30.87
2018-03-03T11:03:05.831Z,31.13
2018-03-03T11:05:33.408Z,33.43
2018-03-03T11:08:00.979Z,39.30
2018-03-03T11:10:28.791Z,42.87
2018-03-03T11:12:56.502Z,44.37
2018-03-03T11:15:24.126Z,43.27
2018-03-03T11:17:51.728Z,49.10
2018-03-03T11:20:19.361Z,41.10
2018-03-03T11:22:47.175Z,40.50
2018-03-03T11:25:14.996Z,32.00
2018-03-03T11:27:42.637Z,31.37
2018-03-03T11:30:10.182Z,32.07
2018-03-03T11:32:37.750Z,33.37
2018-03-03T11:35:05.333Z,76.57
2018-03-03T11:37:33.084Z,34.80
2018-03-03T11:40:00.903Z,27.27
2018-03-03T11:42:28.518Z,30.53
2018-03-03T11:44:56.086Z,28.93
2018-03-03T11:47:23.693Z,30.23
2018-03-03T11:49:51.474Z,25.27
2018-03-03T11:52:19.033Z,28.40
2018-03-03T11:54:46.703Z,36.73
2018-03-03T11:57:14.292Z,39.00
2018-03-03T11:59:42.152Z,38.23
2018-03-03T12:02:09.752Z,63.00
2018-03-03T12:04:37.324Z,94.87
2018-03-03T12:07:04.899Z,128.07
2018-03-03T12:09:32.620Z,67.80
2018-03-03T12:12:00.210Z,62.53
2018-03-03T12:14:27.954Z,63.87
2018-03-03T12:16:55.587Z,46.97
2018-03-03T12:19:23.392Z,48.57
2018-03-03T12:21:51.108Z,90.00
2018-03-03T12:24:18.719Z,83.90
2018-03-03T12:26:46.460Z,88.50
2018-03-03T12:29:14.150Z,32.63
2018-03-03T12:31:41.751Z,33.63
2018-03-03T12:34:09.389Z,42.47
2018-03-03T12:36:36.953Z,18.13
2018-03-03T12:39:04.587Z,25.97
2018-03-03T12:41:32.363Z,23.67
2018-03-03T12:44:00.088Z,21.27
2018-03-03T12:46:27.683Z,32.63
2018-03-03T12:48:55.249Z,40.03
2018-03-03T12:51:22.875Z,42.83
2018-03-03T12:53:50.810Z,23.13
2018-03-03T12:56:18.452Z,33.00
2018-03-03T12:58:46.209Z,34.87
2018-03-03T13:01:13.776Z,36.03
2018-03-03T13:03:41.393Z,40.20
2018-03-03T13:06:08.950Z,53.57
2018-03-03T13:08:36.630Z,24.17
2018-03-03T13:11:04.209Z,24.60
2018-03-03T13:13:31.993Z,18.50
2018-03-03T13:15:59.595Z,21.50
2018-03-03T13:18:27.160Z,30.83
2018-03-03T13:20:54.943Z,19.67
2018-03-03T13:23:22.577Z,25.20
2018-03-03T13:25:50.729Z,24.03
2018-03-03T13:28:18.463Z,27.10
2018-03-03T13:30:46.318Z,21.57
2018-03-03T13:33:14.134Z,61.07
2018-03-03T13:35:41.769Z,48.03
2018-03-03T13:38:09.313Z,34.90
2018-03-03T13:40:36.874Z,21.73
2018-03-03T13:43:04.706Z,51.87
2018-03-03T13:45:32.266Z,33.40
2018-03-03T13:47:59.863Z,25.77
2018-03-03T13:50:27.470Z,57.73
2018-03-03T13:52:55.132Z,18.90
2018-03-03T13:55:22.897Z,19.30
2018-03-03T13:57:50.470Z,21.53
2018-03-03T14:00:18.305Z,23.37
2018-03-03T14:02:46.022Z,32.50
2018-03-03T14:05:13.600Z,65.10
2018-03-03T14:07:41.394Z,44.10
2018-03-03T14:10:08.950Z,35.90
2018-03-03T14:12:36.517Z,68.37
2018-03-03T14:15:04.141Z,27.30
2018-03-03T14:17:31.959Z,45.07
2018-03-03T14:19:59.787Z,70.57
2018-03-03T14:22:27.350Z,76.80
2018-03-03T14:24:54.927Z,82.53
2018-03-03T14:27:22.511Z,159.03
2018-03-03T14:29:50.218Z,135.10
2018-03-03T14:32:17.781Z,92.10
2018-03-03T14:34:45.397Z,50.83
2018-03-03T14:37:12.958Z,72.77
2018-03-03T14:39:40.526Z,36.87
2018-03-03T14:42:08.103Z,42.23
2018-03-03T14:44:35.956Z,63.23
2018-03-03T14:47:03.603Z,30.07
2018-03-03T14:49:31.291Z,31.90
2018-03-03T14:51:59.013Z,38.43
2018-03-03T14:54:26.611Z,43.07
2018-03-03T14:56:54.348Z,31.17
2018-03-03T14:59:21.942Z,41.10
2018-03-03T15:01:49.510Z,87.83
2018-03-03T15:04:17.136Z,48.10
2018-03-03T15:06:44.780Z,46.03
2018-03-03T15:09:12.370Z,31.30
2018-03-03T15:11:40.046Z,29.37
2018-03-03T15:14:07.757Z,18.40
2018-03-03T15:16:35.307Z,24.17
2018-03-03T15:19:02.871Z,50.37
2018-03-03T15:21:30.500Z,53.07
2018-03-03T15:23:58.068Z,61.10
2018-03-03T15:26:25.630Z,52.47
2018-03-03T15:28:53.215Z,120.40
2018-03-03T15:31:21.097Z,188.93
2018-03-03T15:33:48.715Z,75.73
2018-03-03T15:36:16.533Z,374.17
2018-03-03T15:38:44.353Z,199.63
2018-03-03T15:41:11.927Z,133.67
2018-03-03T15:43:39.684Z,89.33
2018-03-03T15:46:07.273Z,146.17
2018-03-03T15:48:34.842Z,102.67
2018-03-03T15:51:02.644Z,102.30
2018-03-03T15:53:30.217Z,136.27
2018-03-03T15:55:57.998Z,370.03
2018-03-03T15:58:25.779Z,408.07
2018-03-03T16:00:53.348Z,473.70
2018-03-03T16:03:21.132Z,490.67
2018-03-03T16:05:48.693Z,116.73
2018-03-03T16:08:16.262Z,140.30
2018-03-03T16:10:43.821Z,163.03
2018-03-03T16:13:11.707Z,87.07
2018-03-03T16:15:39.520Z,387.20
2018-03-03T16:18:07.245Z,723.83
2018-03-03T16:20:35.060Z,182.53
2018-03-03T16:23:02.634Z,602.23
2018-03-03T16:25:30.213Z,319.33
2018-03-03T16:27:58.015Z,417.50
2018-03-03T16:30:25.832Z,441.97
2018-03-03T16:32:53.651Z,391.07
2018-03-03T16:35:21.470Z,305.97
2018-03-03T16:37:49.366Z,309.93
2018-03-03T16:40:16.938Z,273.80
2018-03-03T16:42:44.519Z,165.40
2018-03-03T16:45:12.085Z,169.63
2018-03-03T16:47:39.710Z,235.53
2018-03-03T16:50:07.549Z,643.97
2018-03-03T16:52:35.099Z,379.07
2018-03-03T16:55:02.688Z,497.90
2018-03-03T16:57:30.280Z,400.50
2018-03-03T16:59:57.864Z,467.13
2018-03-03T17:02:25.433Z,499.47
2018-03-03T17:04:53.286Z,388.90
2018-03-03T17:07:21.105Z,628.10
2018-03-03T17:09:48.922Z,415.47
2018-03-03T17:12:16.522Z,641.03
2018-03-03T17:14:44.101Z,763.70
2018-03-03T17:17:11.752Z,611.33
2018-03-03T17:19:39.344Z,522.27
2018-03-03T17:22:06.982Z,438.33
2018-03-03T17:24:34.702Z,411.33
2018-03-03T17:27:02.455Z,330.83
2018-03-03T17:29:30.039Z,306.83
2018-03-03T17:31:57.671Z,402.00
2018-03-03T17:34:25.503Z,245.53
2018-03-03T17:36:53.235Z,264.33
2018-03-03T17:39:21.040Z,290.77
2018-03-03T17:41:48.671Z,393.63
2018-03-03T17:44:16.270Z,384.53
2018-03-03T17:46:43.986Z,260.17
2018-03-03T17:49:11.576Z,187.27
2018-03-03T17:51:39.305Z,170.07
2018-03-03T17:54:06.984Z,213.93
2018-03-03T17:56:34.657Z,208.83
2018-03-03T17:59:02.379Z,341.40
2018-03-03T18:01:30.114Z,271.03
2018-03-03T18:03:57.925Z,248.23
2018-03-03T18:06:25.501Z,269.77
2018-03-03T18:08:53.171Z,342.03
2018-03-03T18:11:20.879Z,380.30
2018-03-03T18:13:57.209Z,231.83
2018-03-03T18:16:24.771Z,193.87
2018-03-03T18:18:52.382Z,158.90
2018-03-03T18:21:20.177Z,121.40
2018-03-03T18:23:47.896Z,117.90
2018-03-03T18:26:15.466Z,218.10
2018-03-03T18:28:43.042Z,330.57
2018-03-03T18:31:10.626Z,199.20
2018-03-03T18:33:38.190Z,167.87
2018-03-03T18:36:05.806Z,154.97
2018-03-03T18:38:33.382Z,261.23
2018-03-03T18:41:01.221Z,197.97
2018-03-03T18:43:29.032Z,194.30
2018-03-03T18:45:56.579Z,180.53
2018-03-03T18:48:24.376Z,184.63
2018-03-03T18:50:52.193Z,198.33
2018-03-03T18:53:20.114Z,202.20
2018-03-03T18:55:47.722Z,205.33
2018-03-03T18:58:15.449Z,227.90
2018-03-03T19:00:43.268Z,226.10
2018-03-03T19:03:11.086Z,333.07
2018-03-03T19:05:38.662Z,319.20
2018-03-03T19:08:06.248Z,295.57
2018-03-03T19:10:34.041Z,311.90
2018-03-03T19:13:01.607Z,255.13
2018-03-03T19:15:29.377Z,290.87
2018-03-03T19:17:56.952Z,275.77
2018-03-03T19:20:24.742Z,219.10
2018-03-03T19:22:52.308Z,201.90
2018-03-03T19:25:19.869Z,149.30
2018-03-03T19:27:47.552Z,229.73
2018-03-03T19:30:15.130Z,232.33
2018-03-03T19:32:42.688Z,233.93
2018-03-03T19:35:10.312Z,198.30
2018-03-03T19:37:38.003Z,149.83
2018-03-03T19:40:05.648Z,143.00
2018-03-03T19:42:33.227Z,170.80
2018-03-03T19:45:01.095Z,179.53
2018-03-03T19:47:28.672Z,188.57
2018-03-03T19:49:56.237Z,201.57
2018-03-03T19:52:24.047Z,213.17
2018-03-03T19:54:51.655Z,209.57
2018-03-03T19:57:19.241Z,241.40
2018-03-03T19:59:46.815Z,216.13
2018-03-03T20:02:14.438Z,235.30
2018-03-03T20:04:42.006Z,274.37
2018-03-03T20:07:09.757Z,249.00
2018-03-03T20:09:37.342Z,235.13
2018-03-03T20:12:04.910Z,235.30
2018-03-03T20:14:32.486Z,464.03
2018-03-03T20:17:00.828Z,454.83
2018-03-03T20:19:28.645Z,391.83
2018-03-03T20:21:56.221Z,288.50
2018-03-03T20:24:23.799Z,313.47
2018-03-03T20:26:51.521Z,285.80
2018-03-03T20:29:19.087Z,236.17
2018-03-03T20:31:46.657Z,203.27
2018-03-03T20:34:14.368Z,153.87
2018-03-03T20:36:41.998Z,163.07
2018-03-03T20:39:09.561Z,103.30
2018-03-03T20:41:37.118Z,105.33
2018-03-03T20:44:04.698Z,230.23
2018-03-03T20:46:32.339Z,249.53
2018-03-03T20:49:00.161Z,209.80
2018-03-03T20:51:27.879Z,151.47
2018-03-03T20:53:55.502Z,122.87
2018-03-03T20:56:23.062Z,125.97
2018-03-03T20:58:50.832Z,197.73
2018-03-03T21:01:18.402Z,185.23
2018-03-03T21:03:46.169Z,168.27
2018-03-03T21:06:13.988Z,150.03
2018-03-03T21:08:41.779Z,128.33
2018-03-03T21:11:15.884Z,135.33
2018-03-03T21:13:43.421Z,132.30
2018-03-03T21:16:10.993Z,163.37
2018-03-03T21:18:38.700Z,151.87
2018-03-03T21:21:06.298Z,145.43
2018-03-03T21:23:33.871Z,141.73
2018-03-03T21:26:01.545Z,154.70
2018-03-03T21:28:29.371Z,189.50
2018-03-03T21:30:56.943Z,174.43
2018-03-03T21:33:24.709Z,157.50
2018-03-03T21:35:52.273Z,154.33
2018-03-03T21:38:19.838Z,129.43
2018-03-03T21:40:47.406Z,116.67
2018-03-03T21:43:15.180Z,138.87
2018-03-03T21:45:42.998Z,129.37
2018-03-03T21:48:10.638Z,166.67
2018-03-03T21:50:38.216Z,168.20
2018-03-03T21:53:05.792Z,162.33
2018-03-03T21:55:33.349Z,101.60
2018-03-03T21:58:01.188Z,100.97
2018-03-03T22:00:29.007Z,155.40
2018-03-03T22:02:56.634Z,158.07
2018-03-03T22:05:24.189Z,150.53
2018-03-03T22:07:51.960Z,152.40
2018-03-03T22:10:19.537Z,144.97
2018-03-03T22:12:47.127Z,149.13
2018-03-03T22:15:14.707Z,197.43
2018-03-03T22:17:42.407Z,163.67
2018-03-03T22:20:10.251Z,161.53
2018-03-03T22:22:37.821Z,180.23
2018-03-03T22:25:05.556Z,146.73
2018-03-03T22:27:33.273Z,145.63
2018-03-03T22:30:00.989Z,184.23
2018-03-03T22:32:28.598Z,97.00
2018-03-03T22:34:56.320Z,150.37
2018-03-03T22:37:23.951Z,135.83
2018-03-03T22:39:51.515Z,133.37
2018-03-03T22:42:19.103Z,132.37
2018-03-03T22:44:46.831Z,139.97
2018-03-03T22:47:14.394Z,119.30
2018-03-03T22:49:42.167Z,126.93
2018-03-03T22:52:09.727Z,143.60
2018-03-03T22:54:37.604Z,141.97
2018-03-03T22:57:05.194Z,153.13
2018-03-03T22:59:32.750Z,168.20
2018-03-03T23:02:00.557Z,162.53
2018-03-03T23:04:28.276Z,143.97
2018-03-03T23:06:55.910Z,146.23
2018-03-03T23:09:23.632Z,144.27
2018-03-03T23:11:51.194Z,142.90
2018-03-03T23:14:18.770Z,127.57
2018-03-03T23:16:46.336Z,124.87
2018-03-03T23:19:13.908Z,119.50
2018-03-03T23:21:41.701Z,127.40
2018-03-03T23:24:09.519Z,121.77
2018-03-03T23:26:37.130Z,134.43
2018-03-03T23:29:04.956Z,116.57
2018-03-03T23:31:32.530Z,128.77
2018-03-03T23:34:00.259Z,129.07
2018-03-03T23:36:27.976Z,57.63
2018-03-03T23:38:55.570Z,64.60
2018-03-03T23:41:23.192Z,50.30
2018-03-03T23:43:50.872Z,47.23
2018-03-03T23:46:18.430Z,98.57
2018-03-03T23:48:46.157Z,93.87
2018-03-03T23:51:13.719Z,92.83
2018-03-03T23:53:42.219Z,92.07
2018-03-03T23:56:09.931Z,93.10
2018-03-03T23:58:37.548Z,101.13
